Time;durP1;ratioP1;P1;durP2;ratioP2;P2;SDS_P1;SDS_P2;PMS_P1;PMS_P2;Temp;Humidity;BMP_temperature;BMP_pressure;BME280_temperature;BME280_humidity;BME280_pressure;Samples;Min_cycle;Max_cycle;Signal;HPM_P1;HPM_P2
2023/04/06 00:01:32;;;;;;;10.13;8.80;;;2.10;99.90;;;;;;5045687;28;20055;-67
2023/04/06 00:03:59;;;;;;;11.07;9.00;;;2.00;99.90;;;;;;5048528;28;20045;-67
2023/04/06 00:06:27;;;;;;;9.98;8.57;;;2.00;99.90;;;;;;5050704;28;20592;-67
2023/04/06 00:08:55;;;;;;;10.98;9.25;;;2.00;99.90;;;;;;5047630;28;20041;-66
2023/04/06 00:11:22;;;;;;;9.20;8.30;;;2.00;99.90;;;;;;5050959;28;20128;-67
2023/04/06 00:13:50;;;;;;;10.05;9.02;;;2.00;99.90;;;;;;5041923;28;20462;-67
2023/04/06 00:16:17;;;;;;;10.20;8.85;;;2.10;99.90;;;;;;5040811;28;20045;-66
2023/04/06 00:18:44;;;;;;;10.82;9.35;;;2.10;99.90;;;;;;5057474;28;20393;-67
2023/04/06 00:21:13;;;;;;;12.25;9.38;;;2.00;99.90;;;;;;5047671;28;20040;-67
2023/04/06 00:23:41;;;;;;;12.55;8.82;;;2.00;99.90;;;;;;5046849;28;20079;-67
2023/04/06 00:26:10;;;;;;;12.52;9.30;;;2.00;99.90;;;;;;5040581;28;20041;-66
2023/04/06 00:28:39;;;;;;;13.85;9.85;;;2.00;99.90;;;;;;5042599;28;20037;-67
2023/04/06 00:31:07;;;;;;;14.50;9.80;;;2.00;99.90;;;;;;5049396;28;20045;-66
2023/04/06 00:33:34;;;;;;;13.13;9.52;;;2.00;99.90;;;;;;5046697;28;20041;-65
2023/04/06 00:36:01;;;;;;;11.60;9.32;;;1.90;99.90;;;;;;5050334;28;20087;-66
2023/04/06 00:38:29;;;;;;;12.02;9.60;;;1.90;99.90;;;;;;5050919;28;20423;-66
2023/04/06 00:40:56;;;;;;;12.52;9.80;;;1.90;99.90;;;;;;5048415;28;20064;-66
2023/04/06 00:43:25;;;;;;;12.70;9.40;;;1.80;99.90;;;;;;5032536;28;20474;-66
2023/04/06 00:45:54;;;;;;;12.50;9.65;;;1.80;99.90;;;;;;5049267;28;20044;-66
2023/04/06 00:48:22;;;;;;;14.50;9.90;;;1.80;99.90;;;;;;5044153;28;20095;-66
2023/04/06 00:50:50;;;;;;;13.68;10.43;;;1.80;99.90;;;;;;5028639;28;20061;-66
2023/04/06 00:53:17;;;;;;;11.90;10.13;;;1.70;99.90;;;;;;5027968;28;20468;-65
2023/04/06 00:55:45;;;;;;;12.80;10.70;;;1.70;99.90;;;;;;5051318;28;20180;-66
2023/04/06 00:58:12;;;;;;;13.30;10.85;;;1.70;99.90;;;;;;5031882;28;20108;-66
2023/04/06 01:00:47;;;;;;;14.32;10.80;;;1.70;99.90;;;;;;5044844;28;20542;-66
2023/04/06 01:03:17;;;;;;;14.20;10.48;;;1.70;99.90;;;;;;5050108;28;20519;-67
2023/04/06 01:05:46;;;;;;;11.52;9.43;;;1.70;99.90;;;;;;5044125;28;20498;-67
2023/04/06 01:08:20;;;;;;;14.98;10.82;;;1.60;99.90;;;;;;5037849;28;20085;-66
2023/04/06 01:10:51;;;;;;;11.90;10.32;;;1.70;99.90;;;;;;5028555;28;20063;-66
2023/04/06 01:13:24;;;;;;;14.20;11.07;;;1.60;99.90;;;;;;5032729;28;20379;-67
2023/04/06 01:15:54;;;;;;;14.70;10.85;;;1.60;99.90;;;;;;5045144;28;20044;-66
2023/04/06 01:18:43;;;;;;;14.25;10.52;;;1.60;99.90;;;;;;5041149;28;20476;-66
2023/04/06 01:21:18;;;;;;;12.25;10.35;;;1.60;99.90;;;;;;5048491;28;20142;-67
2023/04/06 01:24:05;;;;;;;11.65;9.88;;;1.50;99.90;;;;;;5045497;28;20075;-67
2023/04/06 01:26:44;;;;;;;13.15;9.90;;;1.50;99.90;;;;;;5041056;28;20041;-65
2023/04/06 01:29:12;;;;;;;12.68;10.35;;;1.50;99.90;;;;;;5052018;28;20049;-67
2023/04/06 01:31:40;;;;;;;11.50;10.07;;;1.50;99.90;;;;;;5041050;28;20130;-66
2023/04/06 01:34:07;;;;;;;19.88;12.18;;;1.50;99.90;;;;;;5047003;28;20049;-66
2023/04/06 01:36:35;;;;;;;16.38;11.82;;;1.50;99.90;;;;;;5052140;28;20048;-67
2023/04/06 01:39:18;;;;;;;15.60;10.60;;;1.40;99.90;;;;;;5044275;28;20029;-66
2023/04/06 01:41:49;;;;;;;15.57;10.63;;;1.40;99.90;;;;;;5059190;28;20132;-67
2023/04/06 01:44:18;;;;;;;11.98;10.60;;;1.40;99.90;;;;;;5028194;28;20043;-66
2023/04/06 01:46:52;;;;;;;13.65;10.65;;;1.40;99.90;;;;;;5047539;28;20443;-67
2023/04/06 01:49:19;;;;;;;12.90;10.10;;;1.40;99.90;;;;;;5048469;28;20032;-67
2023/04/06 01:51:52;;;;;;;14.20;10.10;;;1.30;99.90;;;;;;5027941;28;20049;-67
2023/04/06 01:54:20;;;;;;;13.77;10.18;;;1.30;99.90;;;;;;5040829;28;20562;-70
2023/04/06 01:56:56;;;;;;;14.98;10.55;;;1.30;99.90;;;;;;5044948;28;20056;-66
2023/04/06 01:59:30;;;;;;;16.55;11.55;;;1.40;99.90;;;;;;5029396;28;20076;-70
2023/04/06 02:01:59;;;;;;;14.15;11.00;;;1.40;99.90;;;;;;5044745;28;20071;-70
2023/04/06 02:04:28;;;;;;;13.85;11.25;;;1.40;99.90;;;;;;5048753;28;20140;-71
2023/04/06 02:07:07;;;;;;;14.60;11.68;;;1.40;99.90;;;;;;5022281;28;20049;-70
2023/04/06 02:09:35;;;;;;;15.82;11.50;;;1.40;99.90;;;;;;5046668;28;20519;-71
2023/04/06 02:12:04;;;;;;;15.65;11.35;;;1.30;99.90;;;;;;5045800;28;20048;-70
2023/04/06 02:14:33;;;;;;;16.00;11.75;;;1.40;99.90;;;;;;5046376;28;20435;-69
2023/04/06 02:17:00;;;;;;;16.25;12.07;;;1.40;99.90;;;;;;5029651;28;20060;-71
2023/04/06 02:19:28;;;;;;;18.33;12.50;;;1.40;99.90;;;;;;5047416;28;20098;-70
2023/04/06 02:21:55;;;;;;;14.77;11.55;;;1.30;99.90;;;;;;5047676;28;20504;-71
2023/04/06 02:24:22;;;;;;;16.45;11.80;;;1.30;99.90;;;;;;5046965;28;20049;-70
2023/04/06 02:26:49;;;;;;;14.70;11.57;;;1.20;99.90;;;;;;5047777;28;20511;-69
2023/04/06 02:29:17;;;;;;;15.65;11.73;;;1.20;99.90;;;;;;5030006;28;20111;-70
2023/04/06 02:31:44;;;;;;;14.75;11.48;;;1.20;99.90;;;;;;5046192;28;20134;-70
2023/04/06 02:34:17;;;;;;;15.93;11.13;;;1.10;99.90;;;;;;5045968;28;20507;-71
2023/04/06 02:36:48;;;;;;;16.52;11.90;;;1.10;99.90;;;;;;5030291;28;20077;-70
2023/04/06 02:39:15;;;;;;;14.77;11.68;;;1.10;99.90;;;;;;5047405;28;20049;-70
2023/04/06 02:41:43;;;;;;;15.93;11.77;;;1.10;99.90;;;;;;5046078;28;20087;-70
2023/04/06 02:44:12;;;;;;;17.92;12.48;;;1.00;99.90;;;;;;5048239;28;20106;-70
2023/04/06 02:46:42;;;;;;;14.18;11.38;;;1.00;99.90;;;;;;5051469;28;20051;-68
2023/04/06 02:49:09;;;;;;;16.63;11.80;;;1.00;99.90;;;;;;5033477;28;20470;-69
2023/04/06 02:51:37;;;;;;;16.90;12.25;;;1.00;99.90;;;;;;5050639;28;20513;-70
2023/04/06 02:54:15;;;;;;;15.57;11.65;;;1.00;99.90;;;;;;5049986;28;20115;-69
2023/04/06 02:56:43;;;;;;;15.98;11.15;;;0.90;99.90;;;;;;5048896;28;20488;-69
2023/04/06 02:59:10;;;;;;;16.35;12.15;;;0.90;99.90;;;;;;5039928;28;20487;-70
2023/04/06 03:01:41;;;;;;;17.50;11.57;;;0.90;99.90;;;;;;5049623;28;20467;-70
2023/04/06 03:04:09;;;;;;;15.00;11.23;;;0.90;99.90;;;;;;5049855;28;20063;-69
2023/04/06 03:06:36;;;;;;;16.38;11.45;;;0.90;99.90;;;;;;5051177;28;20044;-69
2023/04/06 03:09:14;;;;;;;13.18;10.82;;;0.80;99.90;;;;;;5033175;28;20052;-70
2023/04/06 03:11:43;;;;;;;14.63;11.25;;;0.80;99.90;;;;;;5023644;28;20496;-70
2023/04/06 03:14:10;;;;;;;13.43;11.00;;;0.80;99.90;;;;;;5052232;28;20040;-69
2023/04/06 03:16:38;;;;;;;13.93;10.88;;;0.80;99.90;;;;;;5049897;28;20136;-69
2023/04/06 03:19:05;;;;;;;16.90;11.65;;;0.80;99.90;;;;;;5050569;28;20566;-70
2023/04/06 03:21:35;;;;;;;16.05;10.43;;;0.80;99.90;;;;;;5048188;28;20037;-69
2023/04/06 03:24:03;;;;;;;17.42;11.70;;;0.80;99.90;;;;;;5029169;28;20758;-69
2023/04/06 03:26:30;;;;;;;15.00;11.38;;;0.80;99.90;;;;;;5051206;28;20377;-70
2023/04/06 03:29:02;;;;;;;13.98;10.55;;;0.80;99.90;;;;;;5034838;28;20423;-69
2023/04/06 03:31:31;;;;;;;15.40;10.88;;;0.80;99.90;;;;;;5050861;28;20116;-68
2023/04/06 03:34:18;;;;;;;12.75;10.73;;;0.70;99.90;;;;;;5049530;28;20559;-69
2023/04/06 03:36:45;;;;;;;13.02;10.23;;;0.80;99.90;;;;;;5049659;28;20090;-69
2023/04/06 03:39:20;;;;;;;15.02;10.48;;;0.70;99.90;;;;;;5049999;28;20591;-70
2023/04/06 03:41:48;;;;;;;17.10;10.88;;;0.70;99.90;;;;;;5048534;28;20071;-69
2023/04/06 03:44:30;;;;;;;15.02;10.55;;;0.60;99.90;;;;;;5049469;28;20389;-70
2023/04/06 03:46:57;;;;;;;13.38;9.98;;;0.70;99.90;;;;;;5048367;28;20535;-70
2023/04/06 03:49:25;;;;;;;11.98;9.32;;;0.60;99.90;;;;;;5051058;28;20553;-69
2023/04/06 03:51:53;;;;;;;15.02;10.63;;;0.70;99.90;;;;;;5047241;28;20417;-68
2023/04/06 03:54:21;;;;;;;13.40;9.63;;;0.70;99.90;;;;;;5056883;28;20061;-70
2023/04/06 03:56:48;;;;;;;15.73;10.82;;;0.70;99.90;;;;;;5049578;28;20037;-69
2023/04/06 03:59:15;;;;;;;13.65;10.30;;;0.60;99.90;;;;;;5046137;28;20248;-69
2023/04/06 04:01:43;;;;;;;13.43;10.02;;;0.70;99.90;;;;;;5046065;28;20037;-69
2023/04/06 04:04:11;;;;;;;10.85;9.75;;;0.70;99.90;;;;;;5050490;28;20380;-70
2023/04/06 04:06:38;;;;;;;11.60;9.70;;;0.70;99.90;;;;;;5050320;28;20132;-69
2023/04/06 04:09:07;;;;;;;14.20;10.20;;;0.70;99.90;;;;;;5047828;28;20491;-71
2023/04/06 04:11:35;;;;;;;15.80;9.82;;;0.70;99.90;;;;;;5049105;28;20491;-70
2023/04/06 04:14:03;;;;;;;12.52;10.73;;;0.60;99.90;;;;;;5047902;28;20494;-70
2023/04/06 04:16:30;;;;;;;15.57;10.52;;;0.60;99.90;;;;;;5032544;28;20495;-70
2023/04/06 04:18:58;;;;;;;11.75;9.65;;;0.60;99.90;;;;;;5049820;28;20033;-70
2023/04/06 04:21:28;;;;;;;13.68;9.35;;;0.60;99.90;;;;;;5050109;28;20472;-69
2023/04/06 04:23:55;;;;;;;12.77;9.75;;;0.60;99.90;;;;;;5045147;28;20179;-71
2023/04/06 04:26:22;;;;;;;15.70;11.38;;;0.60;99.90;;;;;;5048972;28;20068;-70
2023/04/06 04:28:50;;;;;;;15.63;10.10;;;0.60;99.90;;;;;;5049226;28;20127;-68
2023/04/06 04:31:18;;;;;;;12.30;9.27;;;0.60;99.90;;;;;;5032319;28;20040;-69
2023/04/06 04:33:49;;;;;;;14.77;9.68;;;0.60;99.90;;;;;;5046254;28;20380;-69
2023/04/06 04:36:25;;;;;;;13.80;9.88;;;0.60;99.90;;;;;;5047229;28;20037;-69
2023/04/06 04:38:54;;;;;;;11.90;9.13;;;0.50;99.90;;;;;;5031606;28;20041;-68
2023/04/06 04:41:22;;;;;;;11.68;8.98;;;0.50;99.90;;;;;;5047078;28;20036;-70
2023/04/06 04:43:50;;;;;;;12.10;9.55;;;0.50;99.90;;;;;;5032270;28;20403;-70
2023/04/06 04:46:21;;;;;;;15.20;9.88;;;0.50;99.90;;;;;;5046623;28;20452;-70
2023/04/06 04:48:49;;;;;;;12.27;9.23;;;0.40;99.90;;;;;;5031159;28;20142;-70
2023/04/06 04:51:16;;;;;;;11.52;9.10;;;0.40;99.90;;;;;;5048542;28;20463;-70
2023/04/06 04:53:55;;;;;;;17.20;9.43;;;0.40;99.90;;;;;;5052898;28;20126;-70
2023/04/06 04:56:27;;;;;;;14.35;9.75;;;0.40;99.90;;;;;;5048125;28;20131;-69
2023/04/06 04:59:02;;;;;;;15.68;9.43;;;0.40;99.90;;;;;;5029839;28;20433;-70
2023/04/06 05:01:33;;;;;;;11.60;9.18;;;0.40;99.90;;;;;;5030228;28;20041;-70
2023/04/06 05:04:17;;;;;;;12.73;9.15;;;0.40;99.90;;;;;;5074834;28;20503;-71
2023/04/06 05:06:45;;;;;;;12.73;9.00;;;0.50;99.90;;;;;;5056741;28;20079;-70
2023/04/06 05:09:13;;;;;;;12.57;9.35;;;0.50;99.90;;;;;;5033075;28;20128;-70
2023/04/06 05:11:42;;;;;;;12.35;9.10;;;0.50;99.90;;;;;;5031640;28;20132;-70
2023/04/06 05:14:09;;;;;;;11.13;9.00;;;0.60;99.90;;;;;;5041829;28;20033;-70
2023/04/06 05:16:37;;;;;;;12.95;9.27;;;0.60;99.90;;;;;;5043570;28;20087;-69
2023/04/06 05:19:04;;;;;;;14.82;9.35;;;0.70;99.90;;;;;;5046108;28;20144;-70
2023/04/06 05:21:39;;;;;;;11.75;8.68;;;0.80;99.90;;;;;;5046456;28;20136;-70
2023/04/06 05:24:08;;;;;;;13.50;9.88;;;0.90;99.90;;;;;;5025307;28;20048;-70
2023/04/06 05:26:36;;;;;;;13.68;9.65;;;1.00;99.90;;;;;;5031700;28;20057;-71
2023/04/06 05:29:10;;;;;;;13.98;9.05;;;1.00;99.90;;;;;;5037496;28;20060;-71
2023/04/06 05:31:38;;;;;;;13.95;9.90;;;1.10;99.90;;;;;;5040682;28;20099;-69
2023/04/06 05:34:06;;;;;;;14.65;10.32;;;1.10;99.90;;;;;;5040591;28;20553;-68
2023/04/06 05:36:36;;;;;;;13.07;9.73;;;1.20;99.90;;;;;;5042999;28;20329;-68
2023/04/06 05:39:09;;;;;;;17.98;10.23;;;1.30;99.90;;;;;;5040790;28;20075;-69
2023/04/06 05:41:47;;;;;;;17.17;10.90;;;1.30;99.90;;;;;;5059339;28;20499;-70
2023/04/06 05:44:17;;;;;;;17.48;12.25;;;1.40;99.90;;;;;;5042412;28;20104;-71
2023/04/06 05:46:49;;;;;;;14.68;10.18;;;1.50;99.90;;;;;;5046586;28;20029;-70
2023/04/06 05:49:17;;;;;;;16.15;9.80;;;1.60;99.90;;;;;;5041443;28;20730;-71
2023/04/06 05:51:44;;;;;;;12.57;9.43;;;1.70;99.90;;;;;;5030135;28;20045;-69
2023/04/06 05:54:11;;;;;;;14.60;10.73;;;1.70;99.90;;;;;;5014665;28;20037;-70
2023/04/06 05:56:40;;;;;;;13.25;10.07;;;1.80;99.90;;;;;;5040267;28;20067;-69
2023/04/06 05:59:10;;;;;;;15.20;8.77;;;1.90;99.90;;;;;;5045452;28;20459;-69
2023/04/06 06:01:38;;;;;;;13.65;9.35;;;2.00;99.90;;;;;;5048436;28;20040;-70
2023/04/06 06:04:06;;;;;;;13.65;8.80;;;2.10;99.90;;;;;;5047415;28;20074;-69
2023/04/06 06:06:37;;;;;;;11.98;9.02;;;2.20;99.90;;;;;;5045762;28;20037;-69
2023/04/06 06:09:10;;;;;;;15.77;9.40;;;2.20;99.90;;;;;;5068053;28;20095;-70
2023/04/06 06:11:44;;;;;;;13.38;9.70;;;2.30;99.90;;;;;;5040441;28;20037;-69
2023/04/06 06:14:15;;;;;;;12.25;9.80;;;2.30;99.90;;;;;;5013197;28;20045;-69
2023/04/06 06:16:42;;;;;;;13.43;9.75;;;2.40;99.90;;;;;;5044665;28;20052;-68
2023/04/06 06:19:12;;;;;;;13.57;9.75;;;2.50;99.90;;;;;;5046021;28;20526;-69
2023/04/06 06:21:40;;;;;;;11.63;9.25;;;2.60;99.90;;;;;;5049258;28;20048;-70
2023/04/06 06:24:07;;;;;;;12.15;9.05;;;2.70;99.90;;;;;;5043991;28;20495;-69
2023/04/06 06:26:36;;;;;;;12.70;9.20;;;2.70;99.90;;;;;;5041207;28;20075;-70
2023/04/06 06:29:06;;;;;;;13.98;9.57;;;2.80;99.90;;;;;;5040632;28;20040;-71
2023/04/06 06:31:37;;;;;;;13.70;9.55;;;2.90;99.90;;;;;;5047130;28;20045;-70
2023/04/06 06:34:04;;;;;;;11.73;8.48;;;3.00;99.90;;;;;;5059201;28;20491;-70
2023/04/06 06:36:35;;;;;;;13.93;9.48;;;3.00;99.90;;;;;;5050396;28;20060;-70
2023/04/06 06:39:05;;;;;;;14.40;9.25;;;3.10;99.90;;;;;;5025560;28;20448;-70
2023/04/06 06:41:34;;;;;;;13.15;9.48;;;3.20;99.90;;;;;;5050895;28;20063;-71
2023/04/06 06:44:02;;;;;;;15.40;10.15;;;3.30;99.90;;;;;;5030813;28;20132;-70
2023/04/06 06:46:29;;;;;;;10.77;9.48;;;3.30;99.90;;;;;;5032415;28;20049;-71
2023/04/06 06:48:59;;;;;;;11.65;9.48;;;3.40;99.90;;;;;;5046618;28;20064;-71
2023/04/06 06:51:26;;;;;;;15.52;10.95;;;3.40;99.90;;;;;;5050006;28;20531;-69
2023/04/06 06:53:53;;;;;;;13.98;9.85;;;3.50;99.90;;;;;;5048377;28;20567;-70
2023/04/06 06:56:21;;;;;;;19.13;12.43;;;3.60;99.90;;;;;;5047471;28;20090;-69
2023/04/06 06:58:51;;;;;;;15.68;11.60;;;3.70;99.90;;;;;;5047013;28;20121;-70
2023/04/06 07:01:19;;;;;;;17.38;11.25;;;3.80;99.90;;;;;;5049350;28;20129;-71
2023/04/06 07:03:46;;;;;;;15.98;11.55;;;3.80;99.90;;;;;;5032632;28;20044;-71
2023/04/06 07:06:14;;;;;;;16.70;11.85;;;4.00;99.90;;;;;;5049560;28;20057;-71
2023/04/06 07:08:41;;;;;;;15.63;10.65;;;4.10;99.90;;;;;;5051578;28;20045;-70
2023/04/06 07:11:08;;;;;;;13.40;9.77;;;4.10;99.90;;;;;;5050740;28;20532;-71
2023/04/06 07:13:35;;;;;;;13.52;10.68;;;4.30;99.90;;;;;;5048702;28;20516;-69
2023/04/06 07:16:03;;;;;;;12.70;10.75;;;4.40;99.90;;;;;;5032905;28;20053;-71
2023/04/06 07:18:30;;;;;;;16.25;12.10;;;4.50;99.90;;;;;;5049528;28;20060;-70
2023/04/06 07:21:01;;;;;;;17.63;11.25;;;4.60;99.90;;;;;;5050420;28;20058;-70
2023/04/06 07:23:28;;;;;;;15.00;11.27;;;4.70;99.90;;;;;;5048837;28;20033;-69
2023/04/06 07:25:56;;;;;;;17.73;10.98;;;4.80;99.90;;;;;;5049168;28;20060;-69
2023/04/06 07:28:23;;;;;;;16.10;11.13;;;4.90;99.90;;;;;;5049895;28;20047;-70
2023/04/06 07:30:50;;;;;;;16.92;10.25;;;4.90;99.90;;;;;;5046302;28;20391;-69
2023/04/06 07:33:18;;;;;;;14.63;11.32;;;5.00;99.90;;;;;;5043096;28;20086;-69
2023/04/06 07:35:46;;;;;;;15.70;10.75;;;5.20;99.90;;;;;;5032110;28;20365;-70
2023/04/06 07:38:14;;;;;;;15.18;10.00;;;5.30;99.90;;;;;;5049328;28;20069;-69
2023/04/06 07:40:42;;;;;;;16.88;11.65;;;5.50;99.90;;;;;;5048783;28;20432;-70
2023/04/06 07:43:10;;;;;;;20.15;13.48;;;5.50;99.90;;;;;;5015537;28;20059;-71
2023/04/06 07:45:37;;;;;;;24.85;14.00;;;5.70;99.90;;;;;;5048240;28;20120;-70
2023/04/06 07:48:05;;;;;;;16.55;11.43;;;5.80;99.90;;;;;;5048435;28;20037;-70
2023/04/06 07:50:34;;;;;;;17.38;11.23;;;6.00;99.90;;;;;;5048341;28;20147;-70
2023/04/06 07:53:02;;;;;;;15.27;10.20;;;6.20;99.90;;;;;;5047292;28;20481;-69
2023/04/06 07:55:30;;;;;;;14.75;10.43;;;6.20;99.90;;;;;;5049108;28;20040;-70
2023/04/06 07:57:57;;;;;;;13.20;10.45;;;6.40;99.90;;;;;;5048790;28;20478;-70
2023/04/06 08:00:25;;;;;;;14.52;10.27;;;6.50;99.90;;;;;;5032812;28;20056;-69
2023/04/06 08:02:52;;;;;;;14.45;10.80;;;6.50;99.90;;;;;;5047992;28;20059;-70
2023/04/06 08:05:20;;;;;;;14.43;10.90;;;6.60;99.90;;;;;;5043919;28;20041;-71
2023/04/06 08:07:47;;;;;;;17.90;11.38;;;6.70;99.90;;;;;;5046303;28;20452;-71
2023/04/06 08:10:15;;;;;;;22.35;14.85;;;6.70;99.90;;;;;;5049282;28;20095;-70
2023/04/06 08:12:42;;;;;;;15.70;11.13;;;6.70;99.90;;;;;;5046523;28;20037;-71
2023/04/06 08:15:10;;;;;;;14.35;10.75;;;6.80;99.90;;;;;;5030213;28;20037;-71
2023/04/06 08:17:37;;;;;;;14.07;11.40;;;6.90;99.90;;;;;;5047253;28;20079;-71
2023/04/06 08:20:05;;;;;;;17.15;10.68;;;7.00;99.90;;;;;;5049518;28;20037;-71
2023/04/06 08:22:32;;;;;;;14.43;11.52;;;7.10;99.90;;;;;;5046840;28;20088;-71
2023/04/06 08:25:00;;;;;;;16.02;11.65;;;7.10;99.90;;;;;;5048947;28;20562;-71
2023/04/06 08:27:27;;;;;;;14.85;11.77;;;7.20;99.90;;;;;;5048027;28;20044;-70
2023/04/06 08:29:55;;;;;;;18.42;11.25;;;7.20;99.90;;;;;;5048678;28;20043;-71
2023/04/06 08:32:22;;;;;;;14.05;10.30;;;7.30;99.90;;;;;;5049089;28;20033;-71
2023/04/06 08:34:52;;;;;;;15.40;11.93;;;7.40;99.90;;;;;;5047746;28;20098;-71
2023/04/06 08:37:19;;;;;;;17.27;11.73;;;7.50;99.90;;;;;;5048200;28;20056;-71
2023/04/06 08:39:47;;;;;;;16.80;11.65;;;7.50;99.90;;;;;;5048346;28;20544;-71
2023/04/06 08:42:20;;;;;;;14.25;11.18;;;7.50;99.90;;;;;;5047017;28;20492;-71
2023/04/06 08:44:51;;;;;;;14.88;11.18;;;7.60;99.90;;;;;;5046486;28;20059;-70
2023/04/06 08:47:19;;;;;;;14.52;11.25;;;7.80;99.90;;;;;;5048923;28;20044;-70
2023/04/06 08:49:50;;;;;;;;;;;8.00;99.90;;;;;;5047775;28;20102;-70
2023/04/06 08:52:19;;;;;;;14.70;10.43;;;8.00;99.90;;;;;;5047924;28;19925;-66
2023/04/06 08:54:47;;;;;;;14.77;11.13;;;8.10;99.90;;;;;;5046169;28;20464;-68
2023/04/06 08:57:16;;;;;;;16.05;11.98;;;8.20;99.90;;;;;;5048142;28;20040;-69
2023/04/06 08:59:44;;;;;;;13.00;9.57;;;8.30;99.90;;;;;;5046109;28;20150;-67
2023/04/06 09:02:17;;;;;;;16.67;10.60;;;8.30;99.90;;;;;;5044173;28;20048;-67
2023/04/06 09:04:47;;;;;;;16.67;12.18;;;8.40;99.90;;;;;;5046309;28;20049;-68
2023/04/06 09:07:16;;;;;;;20.40;13.50;;;8.40;99.90;;;;;;5046318;28;20041;-67
2023/04/06 09:09:47;;;;;;;16.52;12.32;;;8.50;99.90;;;;;;5048334;28;20040;-67
2023/04/06 09:12:28;;;;;;;21.17;11.63;;;8.60;99.90;;;;;;5046382;28;20053;-71
2023/04/06 09:14:57;;;;;;;13.98;11.75;;;8.60;99.90;;;;;;5048836;28;20091;-67
2023/04/06 09:17:28;;;;;;;14.30;11.48;;;8.60;99.90;;;;;;5047625;28;20112;-69
2023/04/06 09:19:56;;;;;;;21.70;13.83;;;8.70;99.90;;;;;;5031550;28;20487;-68
2023/04/06 09:22:29;;;;;;;15.45;12.00;;;8.90;99.90;;;;;;5048206;28;20387;-68
2023/04/06 09:24:56;;;;;;;14.48;11.65;;;9.10;99.90;;;;;;5047393;28;20454;-66
2023/04/06 09:27:35;;;;;;;14.73;12.07;;;9.30;99.90;;;;;;5045953;28;20041;-68
2023/04/06 09:30:08;;;;;;;17.08;12.82;;;9.50;99.70;;;;;;5046762;28;20591;-67
2023/04/06 09:32:50;;;;;;;15.07;11.80;;;9.60;99.50;;;;;;5046958;28;20503;-69
2023/04/06 09:35:19;;;;;;;16.10;12.88;;;9.80;99.20;;;;;;5046091;28;20483;-70
2023/04/06 09:37:48;;;;;;;25.48;15.65;;;9.90;98.80;;;;;;5047314;28;20518;-70
2023/04/06 09:40:17;;;;;;;20.27;13.73;;;10.20;98.30;;;;;;5045971;28;20037;-70
2023/04/06 09:42:50;;;;;;;17.15;13.32;;;10.40;97.90;;;;;;5047538;28;20110;-70
2023/04/06 09:45:17;;;;;;;18.95;14.00;;;10.50;95.80;;;;;;5046650;28;20044;-70
2023/04/06 09:47:46;;;;;;;14.80;12.18;;;10.20;95.10;;;;;;5046756;28;20476;-71
2023/04/06 09:50:16;;;;;;;16.55;11.30;;;10.30;94.60;;;;;;5045406;28;20106;-70
2023/04/06 09:52:53;;;;;;;17.13;11.95;;;10.30;94.80;;;;;;5049392;28;20037;-70
2023/04/06 09:55:30;;;;;;;15.10;11.07;;;10.30;94.70;;;;;;5049821;28;20044;-68
2023/04/06 09:58:09;;;;;;;14.63;11.95;;;10.50;94.70;;;;;;5033867;28;20509;-68
2023/04/06 10:01:12;;;;;;;16.55;11.85;;;10.50;93.90;;;;;;5051479;28;20037;-68
2023/04/06 10:03:47;;;;;;;14.38;11.98;;;10.50;94.40;;;;;;5025336;28;20538;-68
2023/04/06 10:06:18;;;;;;;16.13;11.50;;;10.70;94.10;;;;;;5042383;28;20136;-68
2023/04/06 10:08:49;;;;;;;15.40;12.13;;;10.80;93.40;;;;;;5048720;28;20037;-67
2023/04/06 10:11:17;;;;;;;16.20;11.27;;;10.90;93.00;;;;;;5050595;28;20294;-66
2023/04/06 10:13:47;;;;;;;13.82;12.00;;;10.70;93.30;;;;;;5050473;28;20178;-69
2023/04/06 10:16:15;;;;;;;14.75;11.63;;;10.60;93.20;;;;;;5050088;28;20128;-67
2023/04/06 10:18:50;;;;;;;15.38;11.48;;;10.60;93.30;;;;;;5049188;28;20045;-69
2023/04/06 10:21:26;;;;;;;15.60;11.55;;;10.90;93.80;;;;;;5052626;28;20029;-69
2023/04/06 10:23:58;;;;;;;12.60;11.20;;;11.20;93.40;;;;;;5050625;28;20037;-70
2023/04/06 10:26:26;;;;;;;14.93;11.43;;;11.70;93.40;;;;;;5033411;28;20052;-69
2023/04/06 10:28:54;;;;;;;15.30;11.80;;;12.00;92.90;;;;;;5050216;28;20041;-66
2023/04/06 10:31:28;;;;;;;15.57;11.63;;;12.20;91.30;;;;;;5048594;28;20060;-69
2023/04/06 10:33:58;;;;;;;13.73;11.63;;;12.40;90.50;;;;;;5051452;28;20511;-65
2023/04/06 10:36:28;;;;;;;17.80;12.15;;;12.20;90.00;;;;;;5050365;28;20542;-69
2023/04/06 10:39:13;;;;;;;15.85;11.98;;;11.80;88.30;;;;;;5050506;28;20045;-68
2023/04/06 10:41:44;;;;;;;17.88;12.60;;;11.80;90.20;;;;;;5050841;28;20567;-69
2023/04/06 10:44:22;;;;;;;14.48;11.38;;;12.00;89.00;;;;;;5060581;28;20041;-68
2023/04/06 10:46:57;;;;;;;13.70;11.00;;;12.00;89.20;;;;;;5032579;28;20040;-68
2023/04/06 10:49:26;;;;;;;16.42;12.10;;;12.40;89.00;;;;;;5049554;28;20033;-67
2023/04/06 10:51:55;;;;;;;13.88;11.70;;;12.30;88.00;;;;;;5033277;28;20073;-67
2023/04/06 10:54:25;;;;;;;16.17;11.90;;;11.90;87.00;;;;;;5050169;28;20124;-68
2023/04/06 10:56:53;;;;;;;13.05;11.25;;;12.10;86.60;;;;;;5049192;28;20041;-68
2023/04/06 10:59:21;;;;;;;15.02;11.30;;;12.20;87.10;;;;;;5048113;28;20033;-68
2023/04/06 11:01:49;;;;;;;15.80;11.57;;;12.40;86.60;;;;;;5049877;28;20037;-68
2023/04/06 11:04:20;;;;;;;15.02;11.15;;;12.80;86.30;;;;;;5049873;28;20098;-67
2023/04/06 11:06:50;;;;;;;14.45;11.48;;;13.30;85.40;;;;;;5049898;28;20045;-65
2023/04/06 11:09:35;;;;;;;14.40;11.07;;;13.80;83.40;;;;;;5048758;28;20136;-70
2023/04/06 11:12:02;;;;;;;14.75;10.57;;;13.10;79.40;;;;;;5050872;28;20048;-67
2023/04/06 11:14:30;;;;;;;13.07;10.30;;;13.50;81.00;;;;;;5048844;28;20116;-68
2023/04/06 11:16:57;;;;;;;16.85;12.02;;;13.60;80.70;;;;;;5049959;28;20048;-70
2023/04/06 11:19:24;;;;;;;13.05;10.73;;;13.70;79.30;;;;;;5049423;28;20463;-69
2023/04/06 11:21:52;;;;;;;12.73;11.05;;;13.60;80.20;;;;;;5050013;28;20080;-68
2023/04/06 11:24:22;;;;;;;13.93;11.73;;;14.00;79.60;;;;;;5050309;28;20041;-67
2023/04/06 11:26:51;;;;;;;14.77;11.02;;;13.90;78.30;;;;;;5046698;28;20033;-68
2023/04/06 11:29:20;;;;;;;15.70;11.45;;;14.00;78.80;;;;;;5050198;28;20081;-67
2023/04/06 11:31:57;;;;;;;14.95;11.77;;;14.50;77.90;;;;;;5050134;28;20124;-68
2023/04/06 11:34:25;;;;;;;15.23;11.60;;;15.20;76.90;;;;;;5050498;28;20490;-69
2023/04/06 11:36:58;;;;;;;12.70;11.40;;;15.70;75.80;;;;;;5031144;28;20414;-68
2023/04/06 11:39:27;;;;;;;11.98;10.63;;;16.40;73.30;;;;;;5050294;28;20503;-68
2023/04/06 11:41:58;;;;;;;12.73;10.23;;;16.80;71.90;;;;;;5049621;28;20182;-70
2023/04/06 11:44:40;;;;;;;14.00;10.77;;;16.00;69.70;;;;;;5049809;28;20140;-71
2023/04/06 11:47:09;;;;;;;11.90;10.05;;;15.60;69.00;;;;;;5031197;28;20111;-70
2023/04/06 11:49:41;;;;;;;10.80;9.70;;;15.40;70.50;;;;;;5051018;28;20353;-70
2023/04/06 11:52:19;;;;;;;11.65;10.45;;;15.10;70.10;;;;;;5049138;28;20343;-71
2023/04/06 11:54:51;;;;;;;12.65;10.50;;;15.40;69.60;;;;;;5051201;28;20091;-69
2023/04/06 11:57:21;;;;;;;;;;;15.30;68.40;;;;;;5050388;28;20045;-71
2023/04/06 11:59:48;;;;;;;11.35;10.13;;;15.30;68.30;;;;;;5050074;28;19920;-67
2023/04/06 12:02:15;;;;;;;13.77;10.60;;;15.10;68.40;;;;;;5047957;28;20128;-70
2023/04/06 12:04:43;;;;;;;11.23;10.13;;;15.50;68.30;;;;;;5050414;28;20036;-69
2023/04/06 12:07:10;;;;;;;11.63;9.85;;;15.80;67.80;;;;;;5031859;28;20515;-70
2023/04/06 12:09:38;;;;;;;11.15;9.95;;;15.80;66.80;;;;;;5048536;28;20071;-69
2023/04/06 12:12:06;;;;;;;12.43;10.23;;;15.90;67.20;;;;;;5049237;28;20613;-70
2023/04/06 12:14:33;;;;;;;11.57;10.23;;;16.30;66.50;;;;;;5049324;28;20041;-67
2023/04/06 12:17:00;;;;;;;16.35;10.20;;;16.80;64.90;;;;;;5048041;28;20132;-69
2023/04/06 12:19:28;;;;;;;9.93;8.93;;;17.10;64.30;;;;;;5048903;28;20043;-70
2023/04/06 12:21:57;;;;;;;13.93;10.15;;;17.70;64.10;;;;;;5049567;28;20471;-70
2023/04/06 12:24:25;;;;;;;13.20;10.02;;;17.60;63.30;;;;;;5048852;28;20045;-68
2023/04/06 12:26:53;;;;;;;13.07;10.93;;;17.50;63.00;;;;;;5048184;28;20483;-69
2023/04/06 12:29:35;;;;;;;13.30;10.88;;;17.50;60.80;;;;;;5047144;28;20438;-71
2023/04/06 12:32:02;;;;;;;12.25;10.23;;;17.20;60.90;;;;;;5048623;28;20331;-70
2023/04/06 12:34:30;;;;;;;11.63;10.43;;;17.10;61.10;;;;;;5031314;28;20139;-71
2023/04/06 12:36:57;;;;;;;10.88;9.82;;;17.30;62.20;;;;;;5050211;28;20056;-67
2023/04/06 12:39:25;;;;;;;14.38;10.38;;;17.60;59.60;;;;;;5047733;28;20064;-70
2023/04/06 12:41:53;;;;;;;14.05;10.57;;;17.40;59.90;;;;;;5049815;28;20044;-68
2023/04/06 12:44:20;;;;;;;14.07;10.93;;;17.70;60.00;;;;;;5047064;28;20143;-70
2023/04/06 12:46:48;;;;;;;13.85;11.13;;;18.30;60.10;;;;;;5048454;28;20499;-71
2023/04/06 12:49:18;;;;;;;10.50;9.32;;;19.10;60.10;;;;;;5047614;28;20041;-71
2023/04/06 12:51:45;;;;;;;14.40;10.93;;;19.80;58.60;;;;;;5047020;28;20063;-72